sensor_id;sensor_type;location;lat;lon;timestamp;P1;durP1;ratioP1;P2;durP2;ratioP2
21266;SDS011;10791;53.108;18.326;2023-05-19T00:03:50;3.83;;;1.13;;
21266;SDS011;10791;53.108;18.326;2023-05-19T00:08:56;2.97;;;1.13;;
21266;SDS011;10791;53.108;18.326;2023-05-19T00:14:00;5.03;;;1.20;;
21266;SDS011;10791;53.108;18.326;2023-05-19T00:19:04;1.80;;;0.80;;
21266;SDS011;10791;53.108;18.326;2023-05-19T00:24:11;3.17;;;1.60;;
21266;SDS011;10791;53.108;18.326;2023-05-19T00:29:15;3.17;;;1.30;;
21266;SDS011;10791;53.108;18.326;2023-05-19T00:34:20;4.43;;;1.37;;
21266;SDS011;10791;53.108;18.326;2023-05-19T00:39:23;3.40;;;1.73;;
21266;SDS011;10791;53.108;18.326;2023-05-19T00:44:27;2.93;;;1.13;;
21266;SDS011;10791;53.108;18.326;2023-05-19T00:49:30;3.63;;;1.27;;
21266;SDS011;10791;53.108;18.326;2023-05-19T00:54:33;4.03;;;1.10;;
21266;SDS011;10791;53.108;18.326;2023-05-19T00:59:37;3.67;;;1.83;;
21266;SDS011;10791;53.108;18.326;2023-05-19T01:04:41;3.30;;;1.43;;
21266;SDS011;10791;53.108;18.326;2023-05-19T01:09:46;3.30;;;1.47;;
21266;SDS011;10791;53.108;18.326;2023-05-19T01:14:50;2.37;;;1.30;;
21266;SDS011;10791;53.108;18.326;2023-05-19T01:19:59;2.77;;;1.10;;
21266;SDS011;10791;53.108;18.326;2023-05-19T01:25:44;2.63;;;1.33;;
21266;SDS011;10791;53.108;18.326;2023-05-19T01:31:02;3.80;;;1.13;;
21266;SDS011;10791;53.108;18.326;2023-05-19T01:36:08;3.03;;;1.27;;
21266;SDS011;10791;53.108;18.326;2023-05-19T01:41:13;3.70;;;1.30;;
21266;SDS011;10791;53.108;18.326;2023-05-19T01:46:18;3.23;;;1.20;;
21266;SDS011;10791;53.108;18.326;2023-05-19T01:51:22;2.93;;;1.37;;
21266;SDS011;10791;53.108;18.326;2023-05-19T02:01:51;3.70;;;1.33;;
21266;SDS011;10791;53.108;18.326;2023-05-19T02:07:04;3.87;;;1.03;;
21266;SDS011;10791;53.108;18.326;2023-05-19T02:12:28;3.20;;;1.10;;
21266;SDS011;10791;53.108;18.326;2023-05-19T02:17:40;3.20;;;1.37;;
21266;SDS011;10791;53.108;18.326;2023-05-19T02:22:52;3.60;;;1.43;;
21266;SDS011;10791;53.108;18.326;2023-05-19T02:27:56;3.43;;;1.50;;
21266;SDS011;10791;53.108;18.326;2023-05-19T02:33:00;5.17;;;1.37;;
21266;SDS011;10791;53.108;18.326;2023-05-19T02:38:03;3.77;;;1.47;;
21266;SDS011;10791;53.108;18.326;2023-05-19T02:43:07;3.43;;;1.40;;
21266;SDS011;10791;53.108;18.326;2023-05-19T02:48:11;4.00;;;1.30;;
21266;SDS011;10791;53.108;18.326;2023-05-19T02:53:14;5.53;;;1.73;;
21266;SDS011;10791;53.108;18.326;2023-05-19T02:58:17;7.37;;;2.27;;
21266;SDS011;10791;53.108;18.326;2023-05-19T03:03:21;3.27;;;1.70;;
21266;SDS011;10791;53.108;18.326;2023-05-19T03:08:25;3.60;;;1.40;;
21266;SDS011;10791;53.108;18.326;2023-05-19T03:13:29;4.23;;;1.43;;
21266;SDS011;10791;53.108;18.326;2023-05-19T03:18:33;3.23;;;1.50;;
21266;SDS011;10791;53.108;18.326;2023-05-19T03:23:37;4.37;;;1.57;;
21266;SDS011;10791;53.108;18.326;2023-05-19T03:28:41;3.13;;;1.20;;
21266;SDS011;10791;53.108;18.326;2023-05-19T03:33:44;4.30;;;1.40;;
21266;SDS011;10791;53.108;18.326;2023-05-19T03:38:48;3.33;;;1.30;;
21266;SDS011;10791;53.108;18.326;2023-05-19T03:43:51;4.53;;;1.37;;
21266;SDS011;10791;53.108;18.326;2023-05-19T03:48:55;4.30;;;1.40;;
21266;SDS011;10791;53.108;18.326;2023-05-19T03:53:58;2.83;;;1.50;;
21266;SDS011;10791;53.108;18.326;2023-05-19T03:59:02;5.23;;;1.67;;
21266;SDS011;10791;53.108;18.326;2023-05-19T04:04:07;3.40;;;1.50;;
21266;SDS011;10791;53.108;18.326;2023-05-19T04:09:12;3.00;;;1.13;;
21266;SDS011;10791;53.108;18.326;2023-05-19T04:14:16;5.37;;;1.70;;
21266;SDS011;10791;53.108;18.326;2023-05-19T04:19:19;5.20;;;1.47;;
21266;SDS011;10791;53.108;18.326;2023-05-19T04:24:23;4.73;;;1.70;;
21266;SDS011;10791;53.108;18.326;2023-05-19T04:29:26;2.37;;;1.23;;
21266;SDS011;10791;53.108;18.326;2023-05-19T04:34:31;3.63;;;1.93;;
21266;SDS011;10791;53.108;18.326;2023-05-19T04:39:35;3.37;;;1.33;;
21266;SDS011;10791;53.108;18.326;2023-05-19T04:44:41;4.27;;;1.63;;
21266;SDS011;10791;53.108;18.326;2023-05-19T04:49:45;4.70;;;1.40;;
21266;SDS011;10791;53.108;18.326;2023-05-19T04:54:48;8.47;;;1.93;;
21266;SDS011;10791;53.108;18.326;2023-05-19T04:59:52;5.87;;;1.90;;
21266;SDS011;10791;53.108;18.326;2023-05-19T05:05:01;7.70;;;2.00;;
21266;SDS011;10791;53.108;18.326;2023-05-19T05:10:05;6.03;;;2.10;;
21266;SDS011;10791;53.108;18.326;2023-05-19T05:15:10;5.33;;;2.10;;
21266;SDS011;10791;53.108;18.326;2023-05-19T05:20:14;15.93;;;2.00;;
21266;SDS011;10791;53.108;18.326;2023-05-19T05:25:18;13.23;;;2.20;;
21266;SDS011;10791;53.108;18.326;2023-05-19T05:30:22;3.70;;;1.73;;
21266;SDS011;10791;53.108;18.326;2023-05-19T05:35:25;3.23;;;1.57;;
21266;SDS011;10791;53.108;18.326;2023-05-19T05:40:29;6.17;;;1.90;;
21266;SDS011;10791;53.108;18.326;2023-05-19T05:45:32;3.07;;;1.37;;
21266;SDS011;10791;53.108;18.326;2023-05-19T05:50:36;3.37;;;1.70;;
21266;SDS011;10791;53.108;18.326;2023-05-19T05:55:40;5.87;;;1.73;;
21266;SDS011;10791;53.108;18.326;2023-05-19T06:00:44;5.37;;;2.03;;
21266;SDS011;10791;53.108;18.326;2023-05-19T06:05:49;3.83;;;1.83;;
21266;SDS011;10791;53.108;18.326;2023-05-19T06:10:52;4.97;;;1.77;;
21266;SDS011;10791;53.108;18.326;2023-05-19T06:15:56;3.63;;;1.80;;
21266;SDS011;10791;53.108;18.326;2023-05-19T06:21:02;3.00;;;1.70;;
21266;SDS011;10791;53.108;18.326;2023-05-19T06:26:06;3.30;;;1.73;;
21266;SDS011;10791;53.108;18.326;2023-05-19T06:31:09;3.40;;;1.77;;
21266;SDS011;10791;53.108;18.326;2023-05-19T06:36:13;3.30;;;1.70;;
21266;SDS011;10791;53.108;18.326;2023-05-19T06:41:16;5.70;;;1.90;;
21266;SDS011;10791;53.108;18.326;2023-05-19T06:46:19;4.67;;;1.70;;
21266;SDS011;10791;53.108;18.326;2023-05-19T06:51:23;4.00;;;1.60;;
21266;SDS011;10791;53.108;18.326;2023-05-19T06:56:26;65.70;;;5.73;;
21266;SDS011;10791;53.108;18.326;2023-05-19T07:01:30;3.57;;;1.90;;
21266;SDS011;10791;53.108;18.326;2023-05-19T07:06:33;4.57;;;2.30;;
21266;SDS011;10791;53.108;18.326;2023-05-19T07:11:36;3.63;;;2.07;;
21266;SDS011;10791;53.108;18.326;2023-05-19T07:16:39;3.23;;;1.70;;
21266;SDS011;10791;53.108;18.326;2023-05-19T07:21:43;4.90;;;2.00;;
21266;SDS011;10791;53.108;18.326;2023-05-19T07:26:49;3.27;;;1.50;;
21266;SDS011;10791;53.108;18.326;2023-05-19T07:31:53;7.10;;;2.07;;
21266;SDS011;10791;53.108;18.326;2023-05-19T07:36:59;5.63;;;2.13;;
21266;SDS011;10791;53.108;18.326;2023-05-19T07:42:03;9.83;;;2.10;;
21266;SDS011;10791;53.108;18.326;2023-05-19T07:47:07;4.77;;;2.53;;
21266;SDS011;10791;53.108;18.326;2023-05-19T07:52:10;3.63;;;2.00;;
21266;SDS011;10791;53.108;18.326;2023-05-19T07:57:14;6.23;;;2.47;;
21266;SDS011;10791;53.108;18.326;2023-05-19T08:02:18;4.83;;;2.30;;
21266;SDS011;10791;53.108;18.326;2023-05-19T08:07:21;8.37;;;2.37;;
21266;SDS011;10791;53.108;18.326;2023-05-19T08:12:24;5.40;;;2.60;;
21266;SDS011;10791;53.108;18.326;2023-05-19T08:17:28;6.93;;;2.80;;
21266;SDS011;10791;53.108;18.326;2023-05-19T08:22:31;5.73;;;2.33;;
21266;SDS011;10791;53.108;18.326;2023-05-19T08:27:34;5.77;;;2.40;;
21266;SDS011;10791;53.108;18.326;2023-05-19T08:32:37;9.37;;;2.70;;
21266;SDS011;10791;53.108;18.326;2023-05-19T08:37:41;7.43;;;2.50;;
21266;SDS011;10791;53.108;18.326;2023-05-19T08:42:45;4.97;;;2.37;;
21266;SDS011;10791;53.108;18.326;2023-05-19T08:47:49;3.33;;;1.80;;
21266;SDS011;10791;53.108;18.326;2023-05-19T08:53:00;4.87;;;2.47;;
21266;SDS011;10791;53.108;18.326;2023-05-19T08:58:38;4.07;;;2.20;;
21266;SDS011;10791;53.108;18.326;2023-05-19T09:03:46;5.30;;;2.43;;
21266;SDS011;10791;53.108;18.326;2023-05-19T09:08:51;8.17;;;2.67;;
21266;SDS011;10791;53.108;18.326;2023-05-19T09:13:54;4.17;;;2.57;;
21266;SDS011;10791;53.108;18.326;2023-05-19T09:18:58;3.50;;;2.30;;
21266;SDS011;10791;53.108;18.326;2023-05-19T09:24:03;8.03;;;2.73;;
21266;SDS011;10791;53.108;18.326;2023-05-19T09:29:17;7.50;;;2.30;;
21266;SDS011;10791;53.108;18.326;2023-05-19T09:34:20;3.87;;;2.00;;
21266;SDS011;10791;53.108;18.326;2023-05-19T09:39:26;3.10;;;2.00;;
21266;SDS011;10791;53.108;18.326;2023-05-19T09:44:30;4.90;;;2.20;;
21266;SDS011;10791;53.108;18.326;2023-05-19T09:49:34;4.67;;;2.40;;
21266;SDS011;10791;53.108;18.326;2023-05-19T09:54:38;23.23;;;3.57;;
21266;SDS011;10791;53.108;18.326;2023-05-19T09:59:42;9.77;;;3.20;;
21266;SDS011;10791;53.108;18.326;2023-05-19T10:04:46;5.70;;;2.33;;
21266;SDS011;10791;53.108;18.326;2023-05-19T10:09:50;7.43;;;3.33;;
21266;SDS011;10791;53.108;18.326;2023-05-19T10:14:54;4.83;;;2.97;;
21266;SDS011;10791;53.108;18.326;2023-05-19T10:19:59;5.90;;;2.83;;
21266;SDS011;10791;53.108;18.326;2023-05-19T10:25:04;5.23;;;3.43;;
21266;SDS011;10791;53.108;18.326;2023-05-19T10:30:13;5.73;;;3.07;;
21266;SDS011;10791;53.108;18.326;2023-05-19T10:46:28;4.97;;;2.63;;
21266;SDS011;10791;53.108;18.326;2023-05-19T10:51:33;4.73;;;2.77;;
21266;SDS011;10791;53.108;18.326;2023-05-19T10:56:38;8.03;;;2.80;;
21266;SDS011;10791;53.108;18.326;2023-05-19T11:01:43;5.70;;;2.70;;
21266;SDS011;10791;53.108;18.326;2023-05-19T11:06:49;3.67;;;2.27;;
21266;SDS011;10791;53.108;18.326;2023-05-19T11:11:54;3.37;;;2.00;;
21266;SDS011;10791;53.108;18.326;2023-05-19T11:16:58;3.50;;;2.03;;
21266;SDS011;10791;53.108;18.326;2023-05-19T11:22:09;3.30;;;1.80;;
21266;SDS011;10791;53.108;18.326;2023-05-19T11:32:23;5.30;;;1.60;;
21266;SDS011;10791;53.108;18.326;2023-05-19T11:37:32;3.60;;;1.90;;
21266;SDS011;10791;53.108;18.326;2023-05-19T11:42:36;3.10;;;1.60;;
21266;SDS011;10791;53.108;18.326;2023-05-19T11:47:40;3.10;;;1.93;;
21266;SDS011;10791;53.108;18.326;2023-05-19T11:53:03;4.30;;;1.90;;
21266;SDS011;10791;53.108;18.326;2023-05-19T11:58:07;3.53;;;1.80;;
21266;SDS011;10791;53.108;18.326;2023-05-19T12:03:10;2.63;;;1.80;;
21266;SDS011;10791;53.108;18.326;2023-05-19T12:08:17;5.90;;;1.70;;
21266;SDS011;10791;53.108;18.326;2023-05-19T12:13:21;2.93;;;1.70;;
21266;SDS011;10791;53.108;18.326;2023-05-19T12:18:27;5.40;;;2.00;;
21266;SDS011;10791;53.108;18.326;2023-05-19T12:23:33;4.87;;;1.73;;
21266;SDS011;10791;53.108;18.326;2023-05-19T12:28:37;3.20;;;1.13;;
21266;SDS011;10791;53.108;18.326;2023-05-19T12:33:40;2.87;;;1.73;;
21266;SDS011;10791;53.108;18.326;2023-05-19T12:38:44;3.33;;;1.93;;
21266;SDS011;10791;53.108;18.326;2023-05-19T12:43:50;2.73;;;1.70;;
21266;SDS011;10791;53.108;18.326;2023-05-19T12:48:57;3.80;;;1.67;;
21266;SDS011;10791;53.108;18.326;2023-05-19T12:54:02;2.57;;;1.40;;
21266;SDS011;10791;53.108;18.326;2023-05-19T12:59:09;4.53;;;1.80;;
21266;SDS011;10791;53.108;18.326;2023-05-19T13:04:13;5.40;;;2.07;;
21266;SDS011;10791;53.108;18.326;2023-05-19T13:09:17;4.47;;;1.87;;
21266;SDS011;10791;53.108;18.326;2023-05-19T13:14:21;6.17;;;1.93;;
21266;SDS011;10791;53.108;18.326;2023-05-19T13:19:24;4.23;;;1.50;;
21266;SDS011;10791;53.108;18.326;2023-05-19T13:24:27;4.43;;;2.77;;
21266;SDS011;10791;53.108;18.326;2023-05-19T13:29:31;4.13;;;2.13;;
21266;SDS011;10791;53.108;18.326;2023-05-19T13:34:35;6.70;;;2.47;;
21266;SDS011;10791;53.108;18.326;2023-05-19T13:39:38;5.30;;;2.30;;
21266;SDS011;10791;53.108;18.326;2023-05-19T13:44:43;5.87;;;3.83;;
21266;SDS011;10791;53.108;18.326;2023-05-19T13:49:47;4.70;;;2.10;;
21266;SDS011;10791;53.108;18.326;2023-05-19T13:54:50;5.17;;;2.50;;
21266;SDS011;10791;53.108;18.326;2023-05-19T13:59:56;3.00;;;1.67;;
21266;SDS011;10791;53.108;18.326;2023-05-19T14:05:07;5.13;;;1.60;;
21266;SDS011;10791;53.108;18.326;2023-05-19T14:10:11;4.53;;;2.17;;
21266;SDS011;10791;53.108;18.326;2023-05-19T14:15:14;3.00;;;1.70;;
21266;SDS011;10791;53.108;18.326;2023-05-19T14:20:17;3.67;;;1.70;;
21266;SDS011;10791;53.108;18.326;2023-05-19T14:25:21;3.43;;;1.80;;
21266;SDS011;10791;53.108;18.326;2023-05-19T14:30:25;3.00;;;1.60;;
21266;SDS011;10791;53.108;18.326;2023-05-19T14:35:28;2.97;;;1.77;;
21266;SDS011;10791;53.108;18.326;2023-05-19T14:40:31;3.60;;;2.13;;
21266;SDS011;10791;53.108;18.326;2023-05-19T14:45:39;6.03;;;2.40;;
21266;SDS011;10791;53.108;18.326;2023-05-19T14:50:46;4.73;;;2.70;;
21266;SDS011;10791;53.108;18.326;2023-05-19T14:55:52;4.33;;;2.53;;
21266;SDS011;10791;53.108;18.326;2023-05-19T15:00:58;4.37;;;2.40;;
21266;SDS011;10791;53.108;18.326;2023-05-19T15:06:02;4.27;;;2.50;;
21266;SDS011;10791;53.108;18.326;2023-05-19T15:11:11;5.20;;;2.93;;
21266;SDS011;10791;53.108;18.326;2023-05-19T15:16:15;5.37;;;2.70;;
21266;SDS011;10791;53.108;18.326;2023-05-19T15:21:19;4.83;;;2.50;;
21266;SDS011;10791;53.108;18.326;2023-05-19T15:26:23;7.73;;;2.70;;
21266;SDS011;10791;53.108;18.326;2023-05-19T15:31:28;4.93;;;3.00;;
21266;SDS011;10791;53.108;18.326;2023-05-19T15:36:32;7.00;;;3.70;;
21266;SDS011;10791;53.108;18.326;2023-05-19T15:41:35;6.77;;;3.87;;
21266;SDS011;10791;53.108;18.326;2023-05-19T15:46:38;6.20;;;3.10;;
21266;SDS011;10791;53.108;18.326;2023-05-19T15:51:42;5.27;;;2.90;;
21266;SDS011;10791;53.108;18.326;2023-05-19T15:56:47;5.03;;;2.90;;
21266;SDS011;10791;53.108;18.326;2023-05-19T16:01:51;4.83;;;3.23;;
21266;SDS011;10791;53.108;18.326;2023-05-19T16:06:54;6.93;;;3.50;;
21266;SDS011;10791;53.108;18.326;2023-05-19T16:11:58;8.70;;;3.70;;
21266;SDS011;10791;53.108;18.326;2023-05-19T16:17:05;8.30;;;3.60;;
21266;SDS011;10791;53.108;18.326;2023-05-19T16:22:12;6.57;;;3.60;;
21266;SDS011;10791;53.108;18.326;2023-05-19T16:27:16;7.80;;;3.17;;
21266;SDS011;10791;53.108;18.326;2023-05-19T16:32:20;8.50;;;3.27;;
21266;SDS011;10791;53.108;18.326;2023-05-19T16:37:23;6.70;;;3.60;;
21266;SDS011;10791;53.108;18.326;2023-05-19T16:42:27;7.17;;;3.50;;
21266;SDS011;10791;53.108;18.326;2023-05-19T16:47:30;7.03;;;3.50;;
21266;SDS011;10791;53.108;18.326;2023-05-19T16:52:33;7.47;;;3.77;;
21266;SDS011;10791;53.108;18.326;2023-05-19T16:57:37;6.80;;;3.80;;
21266;SDS011;10791;53.108;18.326;2023-05-19T17:02:40;7.93;;;3.47;;
21266;SDS011;10791;53.108;18.326;2023-05-19T17:07:44;4.70;;;2.40;;
21266;SDS011;10791;53.108;18.326;2023-05-19T17:12:47;6.93;;;2.83;;
21266;SDS011;10791;53.108;18.326;2023-05-19T17:17:52;6.90;;;2.60;;
21266;SDS011;10791;53.108;18.326;2023-05-19T17:22:57;6.33;;;3.10;;
21266;SDS011;10791;53.108;18.326;2023-05-19T17:28:01;5.50;;;2.30;;
21266;SDS011;10791;53.108;18.326;2023-05-19T17:33:05;7.30;;;2.60;;
21266;SDS011;10791;53.108;18.326;2023-05-19T17:38:09;5.13;;;2.63;;
21266;SDS011;10791;53.108;18.326;2023-05-19T17:43:13;6.73;;;3.77;;
21266;SDS011;10791;53.108;18.326;2023-05-19T17:48:17;7.23;;;2.83;;
21266;SDS011;10791;53.108;18.326;2023-05-19T17:53:20;5.50;;;2.37;;
21266;SDS011;10791;53.108;18.326;2023-05-19T17:58:24;3.87;;;2.43;;
21266;SDS011;10791;53.108;18.326;2023-05-19T18:03:29;4.10;;;2.53;;
21266;SDS011;10791;53.108;18.326;2023-05-19T18:08:33;4.00;;;2.17;;
21266;SDS011;10791;53.108;18.326;2023-05-19T18:13:38;4.93;;;2.83;;
21266;SDS011;10791;53.108;18.326;2023-05-19T18:18:41;4.07;;;2.20;;
21266;SDS011;10791;53.108;18.326;2023-05-19T18:23:50;5.27;;;2.37;;
21266;SDS011;10791;53.108;18.326;2023-05-19T18:28:53;5.17;;;2.63;;
21266;SDS011;10791;53.108;18.326;2023-05-19T18:33:57;4.77;;;3.07;;
21266;SDS011;10791;53.108;18.326;2023-05-19T18:39:00;5.53;;;2.63;;
21266;SDS011;10791;53.108;18.326;2023-05-19T18:44:04;4.60;;;2.43;;
21266;SDS011;10791;53.108;18.326;2023-05-19T18:49:09;6.87;;;2.67;;
21266;SDS011;10791;53.108;18.326;2023-05-19T18:54:13;5.77;;;3.20;;
21266;SDS011;10791;53.108;18.326;2023-05-19T18:59:16;5.17;;;2.90;;
21266;SDS011;10791;53.108;18.326;2023-05-19T19:04:20;5.23;;;2.83;;
21266;SDS011;10791;53.108;18.326;2023-05-19T19:09:24;6.30;;;3.30;;
21266;SDS011;10791;53.108;18.326;2023-05-19T19:14:28;5.27;;;2.73;;
21266;SDS011;10791;53.108;18.326;2023-05-19T19:19:32;7.20;;;4.37;;
21266;SDS011;10791;53.108;18.326;2023-05-19T19:24:35;4.90;;;2.70;;
21266;SDS011;10791;53.108;18.326;2023-05-19T19:29:39;7.03;;;2.97;;
21266;SDS011;10791;53.108;18.326;2023-05-19T19:34:42;7.00;;;3.00;;
21266;SDS011;10791;53.108;18.326;2023-05-19T19:39:46;6.90;;;3.17;;
21266;SDS011;10791;53.108;18.326;2023-05-19T19:44:53;6.30;;;3.60;;
21266;SDS011;10791;53.108;18.326;2023-05-19T19:49:57;5.90;;;2.77;;
21266;SDS011;10791;53.108;18.326;2023-05-19T19:55:04;5.33;;;2.60;;
21266;SDS011;10791;53.108;18.326;2023-05-19T20:00:08;4.27;;;2.53;;
21266;SDS011;10791;53.108;18.326;2023-05-19T20:05:13;5.70;;;2.40;;
21266;SDS011;10791;53.108;18.326;2023-05-19T20:10:17;5.93;;;2.97;;
21266;SDS011;10791;53.108;18.326;2023-05-19T20:15:25;6.30;;;2.73;;
21266;SDS011;10791;53.108;18.326;2023-05-19T20:20:29;5.13;;;2.90;;
21266;SDS011;10791;53.108;18.326;2023-05-19T20:25:33;5.83;;;2.97;;
21266;SDS011;10791;53.108;18.326;2023-05-19T20:31:04;4.53;;;3.00;;
21266;SDS011;10791;53.108;18.326;2023-05-19T20:36:08;6.93;;;3.20;;
21266;SDS011;10791;53.108;18.326;2023-05-19T20:41:12;7.93;;;3.40;;
21266;SDS011;10791;53.108;18.326;2023-05-19T20:46:16;4.77;;;2.97;;
21266;SDS011;10791;53.108;18.326;2023-05-19T20:51:19;4.33;;;2.43;;
21266;SDS011;10791;53.108;18.326;2023-05-19T20:56:24;6.93;;;2.70;;
21266;SDS011;10791;53.108;18.326;2023-05-19T21:01:30;4.70;;;2.80;;
21266;SDS011;10791;53.108;18.326;2023-05-19T21:06:34;7.10;;;2.63;;
21266;SDS011;10791;53.108;18.326;2023-05-19T21:11:38;5.90;;;2.97;;
21266;SDS011;10791;53.108;18.326;2023-05-19T21:16:41;5.50;;;2.63;;
21266;SDS011;10791;53.108;18.326;2023-05-19T21:21:45;4.87;;;2.97;;
21266;SDS011;10791;53.108;18.326;2023-05-19T21:26:49;4.17;;;2.70;;
21266;SDS011;10791;53.108;18.326;2023-05-19T21:31:53;6.87;;;2.70;;
21266;SDS011;10791;53.108;18.326;2023-05-19T21:36:58;7.50;;;2.93;;
21266;SDS011;10791;53.108;18.326;2023-05-19T21:42:01;5.33;;;3.10;;
21266;SDS011;10791;53.108;18.326;2023-05-19T21:47:05;7.30;;;3.20;;
21266;SDS011;10791;53.108;18.326;2023-05-19T21:52:08;4.10;;;2.93;;
21266;SDS011;10791;53.108;18.326;2023-05-19T21:57:12;4.90;;;3.30;;
21266;SDS011;10791;53.108;18.326;2023-05-19T22:02:16;4.97;;;3.17;;
21266;SDS011;10791;53.108;18.326;2023-05-19T22:07:19;4.43;;;3.40;;
21266;SDS011;10791;53.108;18.326;2023-05-19T22:12:29;7.30;;;3.40;;
21266;SDS011;10791;53.108;18.326;2023-05-19T22:17:33;5.77;;;3.47;;
21266;SDS011;10791;53.108;18.326;2023-05-19T22:22:37;6.00;;;3.40;;
21266;SDS011;10791;53.108;18.326;2023-05-19T22:27:40;6.03;;;3.30;;
21266;SDS011;10791;53.108;18.326;2023-05-19T22:32:44;5.00;;;3.13;;
21266;SDS011;10791;53.108;18.326;2023-05-19T22:37:47;4.80;;;2.83;;
21266;SDS011;10791;53.108;18.326;2023-05-19T22:42:50;5.60;;;3.20;;
21266;SDS011;10791;53.108;18.326;2023-05-19T22:47:53;6.03;;;3.77;;
21266;SDS011;10791;53.108;18.326;2023-05-19T22:52:57;5.37;;;3.57;;
21266;SDS011;10791;53.108;18.326;2023-05-19T22:58:01;5.70;;;3.40;;
21266;SDS011;10791;53.108;18.326;2023-05-19T23:03:04;6.20;;;3.10;;
21266;SDS011;10791;53.108;18.326;2023-05-19T23:08:07;6.40;;;4.43;;
21266;SDS011;10791;53.108;18.326;2023-05-19T23:13:11;6.77;;;3.33;;
21266;SDS011;10791;53.108;18.326;2023-05-19T23:18:14;6.43;;;3.40;;
21266;SDS011;10791;53.108;18.326;2023-05-19T23:23:18;8.20;;;3.30;;
21266;SDS011;10791;53.108;18.326;2023-05-19T23:28:21;7.67;;;3.07;;
21266;SDS011;10791;53.108;18.326;2023-05-19T23:33:24;4.53;;;3.27;;
21266;SDS011;10791;53.108;18.326;2023-05-19T23:38:28;5.57;;;3.13;;
21266;SDS011;10791;53.108;18.326;2023-05-19T23:43:31;5.27;;;3.37;;
21266;SDS011;10791;53.108;18.326;2023-05-19T23:48:35;5.73;;;3.10;;
21266;SDS011;10791;53.108;18.326;2023-05-19T23:53:38;7.67;;;3.80;;
21266;SDS011;10791;53.108;18.326;2023-05-19T23:58:42;5.97;;;3.10;;
